createdAt,value
2023-05-05T00:03:14.782Z,75.46
2023-05-05T00:08:17.482Z,75.44
2023-05-05T00:13:20.448Z,74.74
2023-05-05T00:18:22.556Z,74.21
2023-05-05T00:23:24.579Z,73.74
2023-05-05T00:28:26.668Z,73.74
2023-05-05T00:33:28.930Z,73.36
2023-05-05T00:38:31.051Z,72.90
2023-05-05T00:43:33.285Z,72.89
2023-05-05T00:48:35.870Z,73.09
2023-05-05T00:53:39.800Z,72.65
2023-05-05T00:58:44.703Z,71.54
2023-05-05T01:05:20.767Z,71.49
2023-05-05T01:10:49.009Z,70.73
2023-05-05T01:15:53.641Z,70.82
2023-05-05T01:20:59.776Z,71.38
2023-05-05T01:26:21.766Z,70.94
2023-05-05T01:31:32.671Z,70.91
2023-05-05T01:36:42.431Z,70.59
2023-05-05T01:41:49.189Z,70.64
2023-05-05T01:46:52.376Z,70.92
2023-05-05T01:51:56.401Z,70.63
2023-05-05T01:56:59.752Z,70.90
2023-05-05T02:02:03.584Z,70.94
2023-05-05T02:11:30.147Z,70.93
2023-05-05T02:16:33.328Z,70.95
2023-05-05T02:21:35.312Z,70.67
2023-05-05T02:26:39.977Z,70.67
2023-05-05T02:31:51.320Z,70.38
2023-05-05T02:37:03.483Z,70.48
2023-05-05T02:42:11.189Z,70.56
2023-05-05T02:47:13.618Z,70.65
2023-05-05T02:52:16.149Z,70.65
2023-05-05T02:57:24.306Z,70.92
2023-05-05T03:02:54.371Z,70.48
2023-05-05T03:08:03.466Z,70.85
2023-05-05T03:13:20.581Z,70.92
2023-05-05T03:18:25.201Z,71.00
2023-05-05T03:23:36.654Z,71.03
2023-05-05T03:28:47.063Z,70.93
2023-05-05T03:33:55.149Z,70.89
2023-05-05T03:39:01.563Z,70.94
2023-05-05T03:44:11.270Z,70.74
2023-05-05T03:49:13.385Z,71.04
2023-05-05T03:54:17.593Z,70.82
2023-05-05T03:59:19.815Z,71.06
2023-05-05T04:08:25.401Z,71.34
2023-05-05T04:16:34.188Z,71.24
2023-05-05T04:21:37.301Z,71.47
2023-05-05T04:26:39.402Z,71.77
2023-05-05T04:31:42.021Z,71.45
2023-05-05T04:36:44.516Z,71.41
2023-05-05T04:41:47.153Z,71.55
2023-05-05T04:46:50.021Z,71.56
2023-05-05T04:51:52.395Z,71.56
2023-05-05T04:56:55.986Z,71.35
2023-05-05T05:02:04.714Z,71.01
2023-05-05T05:07:07.095Z,70.57
2023-05-05T05:12:09.852Z,70.37
2023-05-05T05:17:12.068Z,70.25
2023-05-05T05:22:14.542Z,70.30
2023-05-05T05:27:18.696Z,70.00
2023-05-05T05:32:22.919Z,69.84
2023-05-05T05:37:32.222Z,70.00
2023-05-05T05:42:35.348Z,69.52
2023-05-05T05:47:38.693Z,69.50
2023-05-05T05:52:40.974Z,69.54
2023-05-05T05:57:43.517Z,69.97
2023-05-05T06:02:47.074Z,69.99
2023-05-05T06:07:53.006Z,70.06
2023-05-05T06:12:56.776Z,70.41
2023-05-05T06:18:04.986Z,70.54
2023-05-05T06:23:07.542Z,70.38
2023-05-05T06:28:13.012Z,70.66
2023-05-05T06:33:15.186Z,70.72
2023-05-05T06:38:17.403Z,70.93
2023-05-05T06:43:19.577Z,70.82
2023-05-05T06:48:28.748Z,70.66
2023-05-05T06:53:30.898Z,70.59
2023-05-05T06:58:35.676Z,70.19
2023-05-05T07:03:39.974Z,69.35
2023-05-05T07:08:42.154Z,68.83
2023-05-05T07:13:44.425Z,68.21
2023-05-05T07:18:46.554Z,67.90
2023-05-05T07:23:48.725Z,67.55
2023-05-05T07:28:56.139Z,67.00
2023-05-05T07:33:58.513Z,66.40
2023-05-05T07:39:00.754Z,65.83
2023-05-05T07:44:02.993Z,65.62
2023-05-05T07:49:05.205Z,65.14
2023-05-05T07:54:07.435Z,64.49
2023-05-05T07:59:15.658Z,64.73
2023-05-05T08:04:17.956Z,64.55
2023-05-05T08:09:20.577Z,64.71
2023-05-05T08:14:22.762Z,64.25
2023-05-05T08:19:29.189Z,64.35
2023-05-05T08:24:33.041Z,64.24
2023-05-05T08:29:35.228Z,64.96
2023-05-05T08:34:37.515Z,64.91
2023-05-05T08:39:39.516Z,64.64
2023-05-05T08:44:41.613Z,64.48
2023-05-05T08:49:59.007Z,64.11
2023-05-05T08:55:10.573Z,63.54
2023-05-05T09:00:13.479Z,64.44
2023-05-05T09:05:16.451Z,65.13
2023-05-05T09:10:19.637Z,65.60
2023-05-05T09:15:21.698Z,65.98
2023-05-05T09:20:24.758Z,66.71
2023-05-05T09:25:26.788Z,64.67
2023-05-05T09:30:28.869Z,64.49
2023-05-05T09:35:54.510Z,64.19
2023-05-05T09:40:56.658Z,63.53
2023-05-05T09:46:08.670Z,63.00
2023-05-05T09:51:21.278Z,62.00
2023-05-05T09:56:38.256Z,61.51
2023-05-05T10:01:43.339Z,62.85
2023-05-05T10:06:48.814Z,62.81
2023-05-05T10:11:55.563Z,62.27
2023-05-05T10:17:01.855Z,63.32
2023-05-05T10:22:08.406Z,64.07
2023-05-05T10:27:21.009Z,63.77
2023-05-05T10:37:41.484Z,63.09
2023-05-05T10:42:43.991Z,63.61
2023-05-05T10:47:46.780Z,64.74
2023-05-05T10:53:16.889Z,65.47
2023-05-05T10:58:47.077Z,67.17
2023-05-05T11:04:37.273Z,68.54
2023-05-05T11:09:55.514Z,68.82
2023-05-05T11:15:31.274Z,69.42
2023-05-05T11:20:36.362Z,68.23
2023-05-05T11:25:44.687Z,69.35
2023-05-05T11:30:59.461Z,69.76
2023-05-05T11:36:06.029Z,68.94
2023-05-05T11:41:33.649Z,69.58
2023-05-05T11:46:36.047Z,69.54
2023-05-05T11:51:38.370Z,69.78
2023-05-05T11:56:51.190Z,70.21
2023-05-05T12:01:57.136Z,69.20
2023-05-05T12:06:59.961Z,69.94
2023-05-05T12:12:03.091Z,68.27
2023-05-05T12:17:08.667Z,69.43
2023-05-05T12:22:10.923Z,68.89
2023-05-05T12:27:13.038Z,69.02
2023-05-05T12:32:19.910Z,68.47
2023-05-05T12:37:26.439Z,68.97
2023-05-05T12:42:28.836Z,69.66
2023-05-05T12:47:32.507Z,70.84
2023-05-05T12:52:45.646Z,70.93
2023-05-05T12:58:07.204Z,69.85
2023-05-05T13:03:21.863Z,69.54
2023-05-05T13:08:42.239Z,68.90
2023-05-05T13:13:44.705Z,69.98
2023-05-05T13:18:50.624Z,70.23
2023-05-05T13:24:01.540Z,69.98
2023-05-05T13:29:14.415Z,70.54
2023-05-05T13:34:16.824Z,70.23
2023-05-05T13:39:19.235Z,69.41
2023-05-05T13:44:21.986Z,69.62
2023-05-05T13:49:24.610Z,69.68
2023-05-05T13:54:26.814Z,68.84
2023-05-05T13:59:30.137Z,69.96
2023-05-05T14:04:32.539Z,70.12
2023-05-05T14:09:34.769Z,70.21
2023-05-05T14:14:37.512Z,70.05
2023-05-05T14:19:39.881Z,70.65
2023-05-05T14:24:41.854Z,70.33
2023-05-05T14:29:44.129Z,71.70
2023-05-05T14:34:47.737Z,71.65
2023-05-05T14:39:51.835Z,71.89
2023-05-05T14:44:53.960Z,71.26
2023-05-05T14:49:56.732Z,70.30
2023-05-05T14:54:58.928Z,70.06
2023-05-05T15:00:01.563Z,69.59
2023-05-05T15:05:11.312Z,68.91
2023-05-05T15:10:13.742Z,67.57
2023-05-05T15:15:16.172Z,68.65
2023-05-05T15:22:59.495Z,68.83
2023-05-05T15:28:01.776Z,68.94
2023-05-05T15:33:04.103Z,69.41
2023-05-05T15:38:09.029Z,68.82
2023-05-05T15:43:11.207Z,68.64
2023-05-05T15:48:13.174Z,69.58
2023-05-05T15:53:15.292Z,69.54
2023-05-05T15:58:18.238Z,70.37
2023-05-05T16:03:20.291Z,70.68
2023-05-05T16:08:22.632Z,70.79
2023-05-05T16:13:25.048Z,71.47
2023-05-05T16:18:27.475Z,72.85
2023-05-05T16:23:29.602Z,72.73
2023-05-05T16:28:34.298Z,73.39
2023-05-05T16:33:49.945Z,73.31
2023-05-05T16:38:52.109Z,73.49
2023-05-05T16:43:54.344Z,73.89
2023-05-05T16:48:56.622Z,74.25
2023-05-05T16:53:58.789Z,74.06
2023-05-05T16:59:01.030Z,74.08
2023-05-05T17:04:03.414Z,73.88
2023-05-05T17:09:06.341Z,74.67
2023-05-05T17:14:08.735Z,74.82
2023-05-05T17:19:11.315Z,74.40
2023-05-05T17:24:13.528Z,73.94
2023-05-05T17:29:19.872Z,74.52
2023-05-05T17:34:28.299Z,75.28
2023-05-05T17:39:31.045Z,75.37
2023-05-05T17:44:33.172Z,75.66
2023-05-05T17:49:35.295Z,75.85
2023-05-05T17:54:37.565Z,76.50
2023-05-05T17:59:39.969Z,77.08
2023-05-05T18:04:42.486Z,77.65
2023-05-05T18:09:44.717Z,77.47
2023-05-05T18:14:47.106Z,78.07
2023-05-05T18:19:49.630Z,78.44
2023-05-05T18:24:51.603Z,78.91
2023-05-05T18:29:53.602Z,79.03
2023-05-05T18:34:55.859Z,79.49
2023-05-05T18:39:57.957Z,80.20
2023-05-05T18:45:00.141Z,80.57
2023-05-05T18:50:02.555Z,80.80
2023-05-05T18:55:05.022Z,81.17
2023-05-05T19:00:07.821Z,81.53
2023-05-05T19:05:10.651Z,82.00
2023-05-05T19:10:13.424Z,82.19
2023-05-05T19:15:15.534Z,82.27
2023-05-05T19:20:17.734Z,82.79
2023-05-05T19:25:20.085Z,83.04
2023-05-05T19:30:22.714Z,83.56
2023-05-05T19:35:24.956Z,83.80
2023-05-05T19:40:27.144Z,84.20
2023-05-05T19:45:29.314Z,84.50
2023-05-05T19:50:31.754Z,84.81
2023-05-05T19:55:34.604Z,84.83
2023-05-05T20:00:36.876Z,85.36
2023-05-05T20:05:38.912Z,85.66
2023-05-05T20:10:41.142Z,86.24
2023-05-05T20:15:43.491Z,86.80
2023-05-05T20:22:59.184Z,87.27
2023-05-05T20:28:01.450Z,87.52
2023-05-05T20:33:03.659Z,87.63
2023-05-05T20:43:02.635Z,87.70
2023-05-05T20:48:09.825Z,87.86
2023-05-05T20:53:15.466Z,88.01
2023-05-05T20:58:17.745Z,88.36
2023-05-05T21:03:19.885Z,88.43
2023-05-05T21:08:22.146Z,88.91
2023-05-05T21:13:34.720Z,89.67
2023-05-05T21:23:08.534Z,90.89
2023-05-05T21:28:11.124Z,91.05
2023-05-05T21:33:13.495Z,91.40
2023-05-05T21:38:15.767Z,91.40
2023-05-05T21:43:17.920Z,91.26
2023-05-05T21:48:21.658Z,91.48
2023-05-05T21:53:24.177Z,91.69
2023-05-05T21:58:26.508Z,91.76
2023-05-05T22:03:28.752Z,91.68
2023-05-05T22:08:31.140Z,91.71
2023-05-05T22:13:33.300Z,91.64
2023-05-05T22:18:35.904Z,91.31
2023-05-05T22:23:41.484Z,91.63
2023-05-05T22:28:43.886Z,91.88
2023-05-05T22:33:50.706Z,92.14
2023-05-05T22:38:52.966Z,92.10
2023-05-05T22:43:56.357Z,92.16
2023-05-05T22:48:58.279Z,92.08
2023-05-05T22:54:00.505Z,91.97
2023-05-05T22:59:20.936Z,92.19
2023-05-05T23:04:23.061Z,92.36
2023-05-05T23:09:25.181Z,92.35
2023-05-05T23:14:27.490Z,92.42
2023-05-05T23:19:32.508Z,92.39
2023-05-05T23:24:39.747Z,92.44
2023-05-05T23:29:41.989Z,92.08
2023-05-05T23:34:44.065Z,92.16
2023-05-05T23:39:46.305Z,92.44
2023-05-05T23:44:48.604Z,92.56
2023-05-05T23:49:50.719Z,92.60
2023-05-05T23:54:52.763Z,93.10
2023-05-05T23:59:54.975Z,92.80
